sensor_id;sensor_type;location;lat;lon;timestamp;pressure;altitude;pressure_sealevel;temperature;humidity
61554;BME280;47425;51.976;5.326;2023-04-01T00:00:27;98921.22;;;17.05;51.30
61554;BME280;47425;51.976;5.326;2023-04-01T00:02:56;98920.53;;;17.03;51.63
61554;BME280;47425;51.976;5.326;2023-04-01T00:05:22;98916.06;;;17.04;51.33
61554;BME280;47425;51.976;5.326;2023-04-01T00:07:50;98923.88;;;17.05;51.62
61554;BME280;47425;51.976;5.326;2023-04-01T00:10:17;98921.38;;;17.15;51.26
61554;BME280;47425;51.976;5.326;2023-04-01T00:12:44;98923.88;;;16.94;51.51
61554;BME280;47425;51.976;5.326;2023-04-01T00:15:11;98932.38;;;16.86;51.83
61554;BME280;47425;51.976;5.326;2023-04-01T00:17:37;98931.16;;;16.79;52.29
61554;BME280;47425;51.976;5.326;2023-04-01T00:20:06;98933.19;;;16.75;52.16
61554;BME280;47425;51.976;5.326;2023-04-01T00:22:34;98935.44;;;16.57;52.59
61554;BME280;47425;51.976;5.326;2023-04-01T00:25:01;98932.56;;;16.49;52.70
61554;BME280;47425;51.976;5.326;2023-04-01T00:27:27;98933.56;;;16.35;53.09
61554;BME280;47425;51.976;5.326;2023-04-01T00:29:55;98942.25;;;16.37;53.40
61554;BME280;47425;51.976;5.326;2023-04-01T00:32:22;98940.09;;;16.42;53.18
61554;BME280;47425;51.976;5.326;2023-04-01T00:34:49;98939.63;;;16.49;52.88
61554;BME280;47425;51.976;5.326;2023-04-01T00:37:17;98941.69;;;16.56;52.98
61554;BME280;47425;51.976;5.326;2023-04-01T00:39:45;98936.53;;;16.55;52.81
61554;BME280;47425;51.976;5.326;2023-04-01T00:42:12;98937.16;;;16.58;52.59
61554;BME280;47425;51.976;5.326;2023-04-01T00:44:39;98944.94;;;16.60;52.75
61554;BME280;47425;51.976;5.326;2023-04-01T00:47:06;98936.66;;;16.53;52.74
61554;BME280;47425;51.976;5.326;2023-04-01T00:49:34;98948.22;;;16.39;52.84
61554;BME280;47425;51.976;5.326;2023-04-01T00:52:03;98953.75;;;16.36;53.25
61554;BME280;47425;51.976;5.326;2023-04-01T00:54:32;98943.44;;;16.44;53.39
61554;BME280;47425;51.976;5.326;2023-04-01T00:57:00;98944.88;;;16.37;53.36
61554;BME280;47425;51.976;5.326;2023-04-01T00:59:29;98947.03;;;16.43;53.29
61554;BME280;47425;51.976;5.326;2023-04-01T01:01:56;98951.13;;;16.48;53.01
61554;BME280;47425;51.976;5.326;2023-04-01T01:04:23;98944.78;;;16.50;53.06
61554;BME280;47425;51.976;5.326;2023-04-01T01:06:54;98951.31;;;16.57;52.84
61554;BME280;47425;51.976;5.326;2023-04-01T01:09:37;98959.31;;;16.44;52.88
61554;BME280;47425;51.976;5.326;2023-04-01T01:12:07;98959.84;;;16.25;53.65
61554;BME280;47425;51.976;5.326;2023-04-01T01:14:41;98950.38;;;16.34;53.16
61554;BME280;47425;51.976;5.326;2023-04-01T01:17:13;98962.63;;;16.35;53.35
61554;BME280;47425;51.976;5.326;2023-04-01T01:19:51;98964.56;;;16.33;53.40
61554;BME280;47425;51.976;5.326;2023-04-01T01:22:22;98967.91;;;16.35;53.45
61554;BME280;47425;51.976;5.326;2023-04-01T01:25:02;98965.25;;;16.24;53.51
61554;BME280;47425;51.976;5.326;2023-04-01T01:27:48;98964.00;;;16.17;53.90
61554;BME280;47425;51.976;5.326;2023-04-01T01:30:22;98957.66;;;16.19;53.60
61554;BME280;47425;51.976;5.326;2023-04-01T01:35:54;98968.84;;;16.23;53.86
61554;BME280;47425;51.976;5.326;2023-04-01T01:38:23;98963.94;;;16.30;53.61
61554;BME280;47425;51.976;5.326;2023-04-01T01:40:59;98965.13;;;16.25;53.95
61554;BME280;47425;51.976;5.326;2023-04-01T01:43:29;98967.31;;;16.32;53.42
61554;BME280;47425;51.976;5.326;2023-04-01T01:45:57;98961.53;;;16.26;53.50
61554;BME280;47425;51.976;5.326;2023-04-01T01:48:26;98968.94;;;16.21;53.46
61554;BME280;47425;51.976;5.326;2023-04-01T01:50:56;98967.38;;;16.19;53.72
61554;BME280;47425;51.976;5.326;2023-04-01T01:53:23;98972.94;;;16.27;53.47
61554;BME280;47425;51.976;5.326;2023-04-01T01:55:49;98981.31;;;16.21;53.57
61554;BME280;47425;51.976;5.326;2023-04-01T01:58:19;98970.56;;;16.11;53.69
61554;BME280;47425;51.976;5.326;2023-04-01T02:00:50;98974.78;;;16.14;53.81
61554;BME280;47425;51.976;5.326;2023-04-01T02:03:17;98986.59;;;16.21;53.98
61554;BME280;47425;51.976;5.326;2023-04-01T02:05:46;98977.19;;;16.17;53.72
61554;BME280;47425;51.976;5.326;2023-04-01T02:08:16;98985.19;;;16.28;53.36
61554;BME280;47425;51.976;5.326;2023-04-01T02:10:48;98982.59;;;16.39;53.50
61554;BME280;47425;51.976;5.326;2023-04-01T02:13:24;98980.94;;;16.50;53.36
61554;BME280;47425;51.976;5.326;2023-04-01T02:15:53;98989.41;;;16.66;52.74
61554;BME280;47425;51.976;5.326;2023-04-01T02:18:21;98987.22;;;16.60;52.65
61554;BME280;47425;51.976;5.326;2023-04-01T02:20:48;98988.50;;;16.43;53.08
61554;BME280;47425;51.976;5.326;2023-04-01T02:23:16;98987.19;;;16.49;53.15
61554;BME280;47425;51.976;5.326;2023-04-01T02:25:43;98985.00;;;16.42;52.84
61554;BME280;47425;51.976;5.326;2023-04-01T02:28:10;98996.25;;;16.33;53.18
61554;BME280;47425;51.976;5.326;2023-04-01T02:30:38;98990.97;;;16.33;53.32
61554;BME280;47425;51.976;5.326;2023-04-01T02:33:07;98992.72;;;16.21;53.48
61554;BME280;47425;51.976;5.326;2023-04-01T02:35:35;98992.56;;;16.12;53.98
61554;BME280;47425;51.976;5.326;2023-04-01T02:38:02;98990.34;;;16.05;53.96
61554;BME280;47425;51.976;5.326;2023-04-01T02:40:39;98997.72;;;15.89;54.03
61554;BME280;47425;51.976;5.326;2023-04-01T02:43:09;98998.34;;;15.80;54.44
61554;BME280;47425;51.976;5.326;2023-04-01T02:45:36;98995.94;;;15.64;54.59
61554;BME280;47425;51.976;5.326;2023-04-01T02:48:02;98998.81;;;15.48;54.99
61554;BME280;47425;51.976;5.326;2023-04-01T02:50:29;98999.88;;;15.45;55.62
61554;BME280;47425;51.976;5.326;2023-04-01T02:52:55;99002.63;;;15.56;55.14
61554;BME280;47425;51.976;5.326;2023-04-01T02:55:22;99003.44;;;15.70;55.15
61554;BME280;47425;51.976;5.326;2023-04-01T02:57:50;99004.03;;;15.73;54.63
61554;BME280;47425;51.976;5.326;2023-04-01T03:00:17;99007.78;;;15.58;55.20
61554;BME280;47425;51.976;5.326;2023-04-01T03:02:44;99010.63;;;15.68;55.54
61554;BME280;47425;51.976;5.326;2023-04-01T03:05:10;99010.06;;;15.75;55.06
61554;BME280;47425;51.976;5.326;2023-04-01T03:07:37;99010.06;;;15.75;54.63
61554;BME280;47425;51.976;5.326;2023-04-01T03:10:06;99011.66;;;15.78;54.93
61554;BME280;47425;51.976;5.326;2023-04-01T03:12:35;99015.69;;;15.84;54.37
61554;BME280;47425;51.976;5.326;2023-04-01T03:15:03;99018.59;;;15.79;54.91
61554;BME280;47425;51.976;5.326;2023-04-01T03:17:30;99022.84;;;15.69;54.82
61554;BME280;47425;51.976;5.326;2023-04-01T03:19:56;99023.22;;;15.51;55.21
61554;BME280;47425;51.976;5.326;2023-04-01T03:22:23;99023.09;;;15.40;55.70
61554;BME280;47425;51.976;5.326;2023-04-01T03:24:49;99027.88;;;15.22;55.99
61554;BME280;47425;51.976;5.326;2023-04-01T03:27:17;99030.72;;;15.19;55.74
61554;BME280;47425;51.976;5.326;2023-04-01T03:29:43;99030.50;;;15.22;56.42
61554;BME280;47425;51.976;5.326;2023-04-01T03:32:13;99032.41;;;15.33;56.35
61554;BME280;47425;51.976;5.326;2023-04-01T03:34:39;99039.25;;;15.35;56.11
61554;BME280;47425;51.976;5.326;2023-04-01T03:37:07;99035.00;;;15.46;56.02
61554;BME280;47425;51.976;5.326;2023-04-01T03:39:33;99043.25;;;15.54;55.39
61554;BME280;47425;51.976;5.326;2023-04-01T03:42:00;99050.00;;;15.19;55.61
61554;BME280;47425;51.976;5.326;2023-04-01T03:44:30;99048.94;;;15.09;56.38
61554;BME280;47425;51.976;5.326;2023-04-01T03:46:56;99049.25;;;15.17;56.39
61554;BME280;47425;51.976;5.326;2023-04-01T03:49:24;99043.03;;;15.18;56.38
61554;BME280;47425;51.976;5.326;2023-04-01T03:51:50;99047.06;;;15.24;56.33
61554;BME280;47425;51.976;5.326;2023-04-01T03:54:18;99051.50;;;15.23;56.49
61554;BME280;47425;51.976;5.326;2023-04-01T03:56:45;99046.22;;;15.23;56.47
61554;BME280;47425;51.976;5.326;2023-04-01T03:59:12;99051.19;;;15.15;56.49
61554;BME280;47425;51.976;5.326;2023-04-01T04:01:38;99052.22;;;15.13;56.66
61554;BME280;47425;51.976;5.326;2023-04-01T04:04:06;99059.91;;;15.16;56.69
61554;BME280;47425;51.976;5.326;2023-04-01T04:06:34;99057.81;;;15.21;56.80
61554;BME280;47425;51.976;5.326;2023-04-01T04:09:01;99064.47;;;15.26;56.33
61554;BME280;47425;51.976;5.326;2023-04-01T04:11:30;99069.84;;;15.25;56.19
61554;BME280;47425;51.976;5.326;2023-04-01T04:13:56;99069.13;;;15.23;56.63
61554;BME280;47425;51.976;5.326;2023-04-01T04:16:23;99072.06;;;15.18;56.72
61554;BME280;47425;51.976;5.326;2023-04-01T04:18:55;99077.22;;;15.07;56.88
61554;BME280;47425;51.976;5.326;2023-04-01T04:21:23;99080.75;;;14.93;56.88
61554;BME280;47425;51.976;5.326;2023-04-01T04:23:51;99087.00;;;14.92;56.95
61554;BME280;47425;51.976;5.326;2023-04-01T04:26:19;99084.03;;;14.97;57.42
61554;BME280;47425;51.976;5.326;2023-04-01T04:28:53;99099.22;;;14.93;57.13
61554;BME280;47425;51.976;5.326;2023-04-01T04:31:21;99091.84;;;14.98;57.26
61554;BME280;47425;51.976;5.326;2023-04-01T04:33:49;99091.78;;;15.13;56.88
61554;BME280;47425;51.976;5.326;2023-04-01T04:36:16;99092.53;;;15.27;56.83
61554;BME280;47425;51.976;5.326;2023-04-01T04:38:45;99101.59;;;15.49;56.31
61554;BME280;47425;51.976;5.326;2023-04-01T04:41:13;99102.03;;;15.56;55.99
61554;BME280;47425;51.976;5.326;2023-04-01T04:43:42;99111.00;;;15.53;55.97
61554;BME280;47425;51.976;5.326;2023-04-01T04:46:14;99113.09;;;15.35;56.10
61554;BME280;47425;51.976;5.326;2023-04-01T04:48:42;99119.69;;;15.02;56.92
61554;BME280;47425;51.976;5.326;2023-04-01T04:51:12;99119.97;;;14.85;57.19
61554;BME280;47425;51.976;5.326;2023-04-01T04:53:38;99126.94;;;14.86;57.51
61554;BME280;47425;51.976;5.326;2023-04-01T04:56:05;99138.66;;;14.94;57.56
61554;BME280;47425;51.976;5.326;2023-04-01T04:58:53;99134.84;;;14.86;57.67
61554;BME280;47425;51.976;5.326;2023-04-01T05:01:25;99144.72;;;14.55;58.41
61554;BME280;47425;51.976;5.326;2023-04-01T05:03:53;99146.41;;;14.14;59.13
61554;BME280;47425;51.976;5.326;2023-04-01T05:06:20;99153.56;;;13.83;60.29
61554;BME280;47425;51.976;5.326;2023-04-01T05:08:48;99157.66;;;13.73;60.95
61554;BME280;47425;51.976;5.326;2023-04-01T05:11:15;99152.13;;;13.77;60.76
61554;BME280;47425;51.976;5.326;2023-04-01T05:13:43;99157.78;;;13.86;60.80
61554;BME280;47425;51.976;5.326;2023-04-01T05:16:14;99168.47;;;13.83;61.05
61554;BME280;47425;51.976;5.326;2023-04-01T05:18:42;99174.69;;;13.67;61.04
61554;BME280;47425;51.976;5.326;2023-04-01T05:21:09;99174.38;;;13.72;61.59
61554;BME280;47425;51.976;5.326;2023-04-01T05:23:37;99179.06;;;13.67;61.22
61554;BME280;47425;51.976;5.326;2023-04-01T05:26:05;99182.56;;;13.82;61.69
61554;BME280;47425;51.976;5.326;2023-04-01T05:28:32;99184.38;;;13.96;61.24
61554;BME280;47425;51.976;5.326;2023-04-01T05:30:59;99186.16;;;13.81;61.15
61554;BME280;47425;51.976;5.326;2023-04-01T05:33:34;99192.44;;;13.92;61.26
61554;BME280;47425;51.976;5.326;2023-04-01T05:36:07;99201.38;;;14.04;60.56
61554;BME280;47425;51.976;5.326;2023-04-01T05:38:35;99195.47;;;14.01;60.78
61554;BME280;47425;51.976;5.326;2023-04-01T05:41:03;99204.75;;;13.92;61.16
61554;BME280;47425;51.976;5.326;2023-04-01T05:43:37;99203.44;;;13.99;61.29
61554;BME280;47425;51.976;5.326;2023-04-01T05:46:25;99208.91;;;13.96;60.80
61554;BME280;47425;51.976;5.326;2023-04-01T05:48:59;99215.00;;;14.11;60.84
61554;BME280;47425;51.976;5.326;2023-04-01T05:51:46;99222.19;;;14.23;60.83
61554;BME280;47425;51.976;5.326;2023-04-01T05:54:13;99216.03;;;14.23;60.75
61554;BME280;47425;51.976;5.326;2023-04-01T05:56:43;99228.28;;;14.24;60.46
61554;BME280;47425;51.976;5.326;2023-04-01T05:59:09;99231.38;;;14.31;60.27
61554;BME280;47425;51.976;5.326;2023-04-01T06:01:36;99229.94;;;14.39;60.34
61554;BME280;47425;51.976;5.326;2023-04-01T06:04:05;99233.16;;;14.44;59.74
61554;BME280;47425;51.976;5.326;2023-04-01T06:06:32;99237.47;;;14.31;59.78
61554;BME280;47425;51.976;5.326;2023-04-01T06:09:07;99237.31;;;14.34;60.31
61554;BME280;47425;51.976;5.326;2023-04-01T06:11:40;99248.00;;;14.46;59.96
61554;BME280;47425;51.976;5.326;2023-04-01T06:14:13;99250.94;;;14.41;60.02
61554;BME280;47425;51.976;5.326;2023-04-01T06:16:54;99252.16;;;14.35;60.23
61554;BME280;47425;51.976;5.326;2023-04-01T06:19:31;99262.69;;;14.35;59.90
61554;BME280;47425;51.976;5.326;2023-04-01T06:24:57;99268.41;;;14.56;59.54
61554;BME280;47425;51.976;5.326;2023-04-01T06:30:24;99277.91;;;14.59;59.65
61554;BME280;47425;51.976;5.326;2023-04-01T06:32:58;99283.84;;;14.77;59.07
61554;BME280;47425;51.976;5.326;2023-04-01T06:35:34;99286.09;;;14.83;58.66
61554;BME280;47425;51.976;5.326;2023-04-01T06:38:10;99291.72;;;14.91;58.40
61554;BME280;47425;51.976;5.326;2023-04-01T06:40:45;99293.59;;;15.04;58.28
61554;BME280;47425;51.976;5.326;2023-04-01T06:43:17;99296.06;;;14.92;57.68
61554;BME280;47425;51.976;5.326;2023-04-01T06:46:08;99308.69;;;14.87;58.49
61554;BME280;47425;51.976;5.326;2023-04-01T06:49:07;99315.84;;;14.85;58.60
61554;BME280;47425;51.976;5.326;2023-04-01T06:51:50;99312.09;;;14.89;58.21
61554;BME280;47425;51.976;5.326;2023-04-01T06:54:39;99314.41;;;14.94;58.10
61554;BME280;47425;51.976;5.326;2023-04-01T06:57:56;99324.84;;;14.96;58.45
61554;BME280;47425;51.976;5.326;2023-04-01T07:00:27;99322.44;;;14.92;58.14
61554;BME280;47425;51.976;5.326;2023-04-01T07:02:57;99327.91;;;14.89;58.40
61554;BME280;47425;51.976;5.326;2023-04-01T07:05:28;99333.25;;;14.59;59.04
61554;BME280;47425;51.976;5.326;2023-04-01T07:07:59;99333.41;;;14.27;59.97
61554;BME280;47425;51.976;5.326;2023-04-01T07:10:39;99347.31;;;14.15;59.93
61554;BME280;47425;51.976;5.326;2023-04-01T07:13:29;99341.28;;;14.13;60.36
61554;BME280;47425;51.976;5.326;2023-04-01T07:16:06;99337.81;;;14.12;60.53
61554;BME280;47425;51.976;5.326;2023-04-01T07:18:38;99348.44;;;14.10;60.84
61554;BME280;47425;51.976;5.326;2023-04-01T07:21:10;99355.75;;;14.05;60.92
61554;BME280;47425;51.976;5.326;2023-04-01T07:23:42;99360.31;;;14.02;61.44
61554;BME280;47425;51.976;5.326;2023-04-01T07:26:25;99361.94;;;14.04;61.32
61554;BME280;47425;51.976;5.326;2023-04-01T07:29:05;99371.63;;;14.04;61.83
61554;BME280;47425;51.976;5.326;2023-04-01T07:31:41;99375.59;;;14.11;61.25
61554;BME280;47425;51.976;5.326;2023-04-01T07:34:15;99379.88;;;13.98;61.15
61554;BME280;47425;51.976;5.326;2023-04-01T07:36:47;99376.41;;;13.97;62.17
61554;BME280;47425;51.976;5.326;2023-04-01T07:39:20;99379.34;;;14.07;61.87
61554;BME280;47425;51.976;5.326;2023-04-01T07:42:09;99390.94;;;14.19;61.36
61554;BME280;47425;51.976;5.326;2023-04-01T07:44:42;99396.56;;;14.13;61.28
61554;BME280;47425;51.976;5.326;2023-04-01T07:47:29;99392.44;;;14.23;61.36
61554;BME280;47425;51.976;5.326;2023-04-01T07:50:02;99398.13;;;14.31;60.63
61554;BME280;47425;51.976;5.326;2023-04-01T07:52:35;99409.56;;;14.16;61.27
61554;BME280;47425;51.976;5.326;2023-04-01T07:55:19;99412.72;;;14.06;61.72
61554;BME280;47425;51.976;5.326;2023-04-01T07:57:52;99411.94;;;14.04;61.77
61554;BME280;47425;51.976;5.326;2023-04-01T08:00:24;99417.72;;;14.11;61.67
61554;BME280;47425;51.976;5.326;2023-04-01T08:03:09;99428.81;;;14.16;61.65
61554;BME280;47425;51.976;5.326;2023-04-01T08:05:46;99426.00;;;14.19;61.44
61554;BME280;47425;51.976;5.326;2023-04-01T08:08:18;99434.09;;;14.16;61.77
61554;BME280;47425;51.976;5.326;2023-04-01T08:11:02;99441.81;;;14.19;61.56
61554;BME280;47425;51.976;5.326;2023-04-01T08:13:56;99443.06;;;14.28;61.32
61554;BME280;47425;51.976;5.326;2023-04-01T08:17:00;99443.38;;;14.38;61.33
61554;BME280;47425;51.976;5.326;2023-04-01T08:19:40;99440.63;;;14.39;61.29
61554;BME280;47425;51.976;5.326;2023-04-01T08:22:12;99452.72;;;14.58;61.12
61554;BME280;47425;51.976;5.326;2023-04-01T08:25:00;99455.53;;;14.71;60.29
61554;BME280;47425;51.976;5.326;2023-04-01T08:27:34;99461.38;;;14.76;60.49
61554;BME280;47425;51.976;5.326;2023-04-01T08:30:06;99466.16;;;14.84;60.27
61554;BME280;47425;51.976;5.326;2023-04-01T08:32:44;99466.84;;;15.02;59.81
61554;BME280;47425;51.976;5.326;2023-04-01T08:35:16;99474.38;;;15.08;59.35
61554;BME280;47425;51.976;5.326;2023-04-01T08:37:49;99481.06;;;14.99;59.43
61554;BME280;47425;51.976;5.326;2023-04-01T08:40:32;99485.22;;;15.03;59.46
61554;BME280;47425;51.976;5.326;2023-04-01T08:43:07;99488.03;;;15.15;59.51
61554;BME280;47425;51.976;5.326;2023-04-01T08:45:42;99485.22;;;15.32;59.43
61554;BME280;47425;51.976;5.326;2023-04-01T08:51:06;99492.47;;;15.29;58.89
61554;BME280;47425;51.976;5.326;2023-04-01T08:53:47;99499.44;;;15.30;58.81
61554;BME280;47425;51.976;5.326;2023-04-01T08:56:20;99505.19;;;15.36;59.00
61554;BME280;47425;51.976;5.326;2023-04-01T08:59:07;99511.97;;;15.40;59.02
61554;BME280;47425;51.976;5.326;2023-04-01T09:01:57;99516.09;;;15.44;58.77
61554;BME280;47425;51.976;5.326;2023-04-01T09:05:01;99514.50;;;15.42;58.56
61554;BME280;47425;51.976;5.326;2023-04-01T09:07:35;99516.88;;;15.32;58.90
61554;BME280;47425;51.976;5.326;2023-04-01T09:10:18;99525.41;;;15.21;59.04
61554;BME280;47425;51.976;5.326;2023-04-01T09:12:59;99519.03;;;15.25;59.03
61554;BME280;47425;51.976;5.326;2023-04-01T09:15:40;99528.16;;;15.34;59.10
61554;BME280;47425;51.976;5.326;2023-04-01T09:18:13;99528.53;;;15.28;59.08
61554;BME280;47425;51.976;5.326;2023-04-01T09:20:53;99534.19;;;15.22;58.95
61554;BME280;47425;51.976;5.326;2023-04-01T09:23:43;99538.22;;;15.13;59.46
61554;BME280;47425;51.976;5.326;2023-04-01T09:26:18;99541.66;;;15.30;59.02
61554;BME280;47425;51.976;5.326;2023-04-01T09:28:55;99546.81;;;15.46;58.52
61554;BME280;47425;51.976;5.326;2023-04-01T09:31:36;99547.94;;;15.56;58.23
61554;BME280;47425;51.976;5.326;2023-04-01T09:34:30;99547.94;;;15.70;57.83
61554;BME280;47425;51.976;5.326;2023-04-01T09:37:15;99561.13;;;15.70;57.61
61554;BME280;47425;51.976;5.326;2023-04-01T09:39:47;99557.19;;;15.49;58.31
61554;BME280;47425;51.976;5.326;2023-04-01T09:42:30;99565.00;;;15.36;58.79
61554;BME280;47425;51.976;5.326;2023-04-01T09:45:14;99563.22;;;15.36;58.71
61554;BME280;47425;51.976;5.326;2023-04-01T09:47:51;99573.38;;;15.57;58.23
61554;BME280;47425;51.976;5.326;2023-04-01T09:50:28;99578.47;;;15.60;58.10
61554;BME280;47425;51.976;5.326;2023-04-01T09:53:01;99574.63;;;15.51;58.36
61554;BME280;47425;51.976;5.326;2023-04-01T09:55:54;99573.56;;;15.39;58.81
61554;BME280;47425;51.976;5.326;2023-04-01T09:58:43;99577.03;;;15.11;59.09
61554;BME280;47425;51.976;5.326;2023-04-01T10:01:20;99578.50;;;15.01;60.10
61554;BME280;47425;51.976;5.326;2023-04-01T10:04:02;99589.03;;;15.31;59.44
61554;BME280;47425;51.976;5.326;2023-04-01T10:09:30;99584.41;;;15.78;57.57
61554;BME280;47425;51.976;5.326;2023-04-01T10:17:56;99597.38;;;16.24;56.68
61554;BME280;47425;51.976;5.326;2023-04-01T10:20:37;99595.34;;;16.42;56.13
61554;BME280;47425;51.976;5.326;2023-04-01T10:23:33;99598.44;;;16.49;55.67
61554;BME280;47425;51.976;5.326;2023-04-01T10:26:17;99600.97;;;16.51;55.90
61554;BME280;47425;51.976;5.326;2023-04-01T10:29:11;99602.41;;;16.42;55.91
61554;BME280;47425;51.976;5.326;2023-04-01T10:34:41;99604.47;;;16.24;56.74
61554;BME280;47425;51.976;5.326;2023-04-01T10:37:25;99612.28;;;16.25;56.97
61554;BME280;47425;51.976;5.326;2023-04-01T10:43:29;99617.31;;;15.87;58.03
61554;BME280;47425;51.976;5.326;2023-04-01T10:46:15;99624.59;;;15.24;59.13
61554;BME280;47425;51.976;5.326;2023-04-01T11:01:32;99631.16;;;15.47;59.81
61554;BME280;47425;51.976;5.326;2023-04-01T11:04:36;99634.91;;;15.57;59.35
61554;BME280;47425;51.976;5.326;2023-04-01T11:07:58;99638.97;;;15.49;59.66
61554;BME280;47425;51.976;5.326;2023-04-01T11:13:36;99646.34;;;15.58;59.71
61554;BME280;47425;51.976;5.326;2023-04-01T11:16:33;99645.84;;;15.37;60.03
61554;BME280;47425;51.976;5.326;2023-04-01T11:19:24;99642.13;;;15.25;60.08
61554;BME280;47425;51.976;5.326;2023-04-01T11:24:46;99652.13;;;15.04;60.86
61554;BME280;47425;51.976;5.326;2023-04-01T11:27:42;99658.69;;;15.13;60.57
61554;BME280;47425;51.976;5.326;2023-04-01T11:30:33;99660.97;;;15.33;60.98
61554;BME280;47425;51.976;5.326;2023-04-01T11:33:08;99663.47;;;15.36;60.35
61554;BME280;47425;51.976;5.326;2023-04-01T11:35:51;99667.53;;;15.42;60.14
61554;BME280;47425;51.976;5.326;2023-04-01T11:38:27;99661.94;;;15.47;60.24
61554;BME280;47425;51.976;5.326;2023-04-01T11:41:19;99671.13;;;15.55;60.51
61554;BME280;47425;51.976;5.326;2023-04-01T11:44:10;99670.75;;;15.76;60.05
61554;BME280;47425;51.976;5.326;2023-04-01T11:47:01;99674.59;;;16.01;59.27
61554;BME280;47425;51.976;5.326;2023-04-01T11:49:35;99675.06;;;16.07;58.59
61554;BME280;47425;51.976;5.326;2023-04-01T11:52:17;99687.19;;;16.24;58.26
61554;BME280;47425;51.976;5.326;2023-04-01T11:54:53;99687.38;;;16.21;57.82
61554;BME280;47425;51.976;5.326;2023-04-01T11:57:32;99685.56;;;16.36;57.30
61554;BME280;47425;51.976;5.326;2023-04-01T12:00:05;99691.69;;;16.37;57.14
61554;BME280;47425;51.976;5.326;2023-04-01T12:02:46;99694.53;;;16.34;57.19
61554;BME280;47425;51.976;5.326;2023-04-01T12:05:25;99704.63;;;16.13;57.97
61554;BME280;47425;51.976;5.326;2023-04-01T12:08:02;99704.44;;;15.87;58.67
61554;BME280;47425;51.976;5.326;2023-04-01T12:10:33;99706.88;;;15.75;59.75
61554;BME280;47425;51.976;5.326;2023-04-01T12:13:07;99714.06;;;15.88;59.35
61554;BME280;47425;51.976;5.326;2023-04-01T12:15:43;99715.03;;;16.01;59.21
61554;BME280;47425;51.976;5.326;2023-04-01T12:18:16;99716.81;;;16.15;59.23
61554;BME280;47425;51.976;5.326;2023-04-01T12:20:50;99720.97;;;16.34;58.18
61554;BME280;47425;51.976;5.326;2023-04-01T12:23:28;99722.44;;;16.52;58.23
61554;BME280;47425;51.976;5.326;2023-04-01T12:26:10;99728.44;;;16.69;57.68
61554;BME280;47425;51.976;5.326;2023-04-01T12:28:45;99734.59;;;16.69;57.83
61554;BME280;47425;51.976;5.326;2023-04-01T12:31:26;99730.47;;;16.65;57.47
61554;BME280;47425;51.976;5.326;2023-04-01T12:34:00;99736.69;;;16.64;57.16
61554;BME280;47425;51.976;5.326;2023-04-01T12:36:40;99745.88;;;16.30;57.58
61554;BME280;47425;51.976;5.326;2023-04-01T12:39:17;99741.41;;;15.87;58.66
61554;BME280;47425;51.976;5.326;2023-04-01T12:42:08;99744.63;;;15.47;59.04
61554;BME280;47425;51.976;5.326;2023-04-01T12:50:07;99758.22;;;14.77;61.39
61554;BME280;47425;51.976;5.326;2023-04-01T12:52:42;99760.44;;;14.69;61.47
61554;BME280;47425;51.976;5.326;2023-04-01T12:55:23;99766.47;;;14.71;61.69
61554;BME280;47425;51.976;5.326;2023-04-01T13:00:47;99766.16;;;14.59;62.28
61554;BME280;47425;51.976;5.326;2023-04-01T13:03:26;99774.91;;;14.44;62.99
61554;BME280;47425;51.976;5.326;2023-04-01T13:08:46;99773.13;;;14.11;64.11
61554;BME280;47425;51.976;5.326;2023-04-01T13:11:19;99788.06;;;14.10;64.17
61554;BME280;47425;51.976;5.326;2023-04-01T13:13:55;99787.69;;;14.18;63.86
61554;BME280;47425;51.976;5.326;2023-04-01T13:16:26;99792.72;;;14.05;64.03
61554;BME280;47425;51.976;5.326;2023-04-01T13:18:55;99802.59;;;14.18;64.21
61554;BME280;47425;51.976;5.326;2023-04-01T13:21:27;99800.94;;;14.17;63.92
61554;BME280;47425;51.976;5.326;2023-04-01T13:23:58;99802.00;;;13.95;63.75
61554;BME280;47425;51.976;5.326;2023-04-01T13:26:29;99806.28;;;13.98;64.31
61554;BME280;47425;51.976;5.326;2023-04-01T13:29:04;99809.06;;;13.95;63.90
61554;BME280;47425;51.976;5.326;2023-04-01T13:31:35;99814.34;;;13.95;64.30
61554;BME280;47425;51.976;5.326;2023-04-01T13:34:08;99812.72;;;13.92;64.88
61554;BME280;47425;51.976;5.326;2023-04-01T13:36:44;99820.75;;;14.06;64.89
61554;BME280;47425;51.976;5.326;2023-04-01T13:39:21;99815.31;;;14.09;64.59
61554;BME280;47425;51.976;5.326;2023-04-01T13:41:58;99824.91;;;14.28;64.87
61554;BME280;47425;51.976;5.326;2023-04-01T13:44:31;99827.06;;;14.37;64.95
61554;BME280;47425;51.976;5.326;2023-04-01T13:47:11;99820.91;;;14.21;64.67
61554;BME280;47425;51.976;5.326;2023-04-01T13:49:47;99821.66;;;14.23;65.32
61554;BME280;47425;51.976;5.326;2023-04-01T13:52:23;99824.53;;;14.18;65.00
61554;BME280;47425;51.976;5.326;2023-04-01T13:55:01;99829.16;;;14.31;65.29
61554;BME280;47425;51.976;5.326;2023-04-01T13:57:41;99838.53;;;14.36;64.88
61554;BME280;47425;51.976;5.326;2023-04-01T14:00:16;99842.09;;;14.35;65.19
61554;BME280;47425;51.976;5.326;2023-04-01T14:02:50;99836.72;;;14.21;64.88
61554;BME280;47425;51.976;5.326;2023-04-01T14:05:24;99834.06;;;14.21;64.97
61554;BME280;47425;51.976;5.326;2023-04-01T14:07:57;99840.19;;;14.04;65.10
61554;BME280;47425;51.976;5.326;2023-04-01T14:10:30;99845.22;;;13.73;65.79
61554;BME280;47425;51.976;5.326;2023-04-01T14:13:02;99846.16;;;13.72;65.62
61554;BME280;47425;51.976;5.326;2023-04-01T14:15:38;99857.88;;;13.65;65.74
61554;BME280;47425;51.976;5.326;2023-04-01T14:18:28;99859.53;;;13.68;66.27
61554;BME280;47425;51.976;5.326;2023-04-01T14:21:07;99851.25;;;13.75;65.74
61554;BME280;47425;51.976;5.326;2023-04-01T14:23:42;99856.81;;;13.69;65.79
61554;BME280;47425;51.976;5.326;2023-04-01T14:26:18;99860.53;;;13.65;66.27
61554;BME280;47425;51.976;5.326;2023-04-01T14:28:50;99865.47;;;13.54;66.41
61554;BME280;47425;51.976;5.326;2023-04-01T14:34:22;99876.00;;;13.54;66.88
61554;BME280;47425;51.976;5.326;2023-04-01T14:39:59;99879.34;;;13.38;66.79